Portada
METAR-TAF:

METAR-TAF

Aeroports :

Victòria, Mahé, Seychelles

latitud: 04-40S, longitud: 055-31E, altitud: 3 m

Observació

L'informe es va fer fa 43 minuts, a les 08:00 UTC
Vent 16 kt del Sud-Est amb ràfegues de 29 kt, variant entre Est i Sud
Temperatura 28°C
Humitat 74%
Pressió 1014 hPa
Visibilitat 10 km o més
Núvols disperses a una alçada de 2100 ft

METAR: FSIA 190800Z 13016G29KT 100V170 9999 SCT021 28/23 Q1014 NOSIG

Hora: 12:43 (08:43 UTC)

Pronòstic

L'informe es va fer fa 3 hores i 39 minuts, a les 05:04 UTC
Pronòstic vàlid del 19 a les 06 UTC al 20 a les 06 UTC
Vent 12 kt del Sud-Est amb ràfegues de 25 kt
Visibilitat 10 km o més
Núvols disperses a una alçada de 2000 ft
Probabilitat 40% :
Temporalment
l' 19 a les 08 UTC al 19 a les 14 UTC
Visibilitat: 8000 m
Escasses núvols a una alçada de 1200 ft
Cel ennuvolat a una alçada de 2000 ft
xàfecs de pluja

TAF: FSIA 190504Z 1906/2006 13012G25KT 9999 SCT020 PROB40 TEMPO 1908/1914 8000 SHRA FEW012 BKN020

Observacions i pronòstics meteorològics de més de 4000 aeroports (METAR i TAF).

Les estacions disponibles són els punts grocs i vermells al mapa.

Posi el ratolí al punt desitjat per veure el nom de l'estació.

Feu clic per veure les observacions i els pronòstics meteorològics.

Per canviar el mapa: feu clic els botons verds amb una creu de color negre per apropar; al botó verd amb un guió per allunyar la imatge; o en les fletxes verdes per a mapes adjacents.


METAR-TAF: